sensor_id;sensor_type;location;lat;lon;timestamp;P1;P2;P0
50587;PMS7003;70782;50.514;30.816;2023-06-22T00:00:13;34.30;31.70;22.00
50587;PMS7003;70782;50.514;30.816;2023-06-22T00:01:15;35.00;31.60;21.40
50587;PMS7003;70782;50.514;30.816;2023-06-22T00:02:17;33.20;31.30;20.90
50587;PMS7003;70782;50.514;30.816;2023-06-22T00:03:21;33.60;30.80;20.90
50587;PMS7003;70782;50.514;30.816;2023-06-22T00:04:24;32.40;29.80;20.70
50587;PMS7003;70782;50.514;30.816;2023-06-22T00:05:26;32.30;28.30;19.50
50587;PMS7003;70782;50.514;30.816;2023-06-22T00:06:29;33.50;29.80;20.00
50587;PMS7003;70782;50.514;30.816;2023-06-22T00:07:31;31.78;30.00;20.44
50587;PMS7003;70782;50.514;30.816;2023-06-22T00:08:32;33.00;30.11;20.44
50587;PMS7003;70782;50.514;30.816;2023-06-22T00:09:34;32.22;29.11;20.67
50587;PMS7003;70782;50.514;30.816;2023-06-22T00:10:37;29.10;27.90;20.50
50587;PMS7003;70782;50.514;30.816;2023-06-22T00:11:39;33.33;27.78;20.44
50587;PMS7003;70782;50.514;30.816;2023-06-22T00:12:41;31.56;30.33;21.00
50587;PMS7003;70782;50.514;30.816;2023-06-22T00:13:43;30.33;29.56;20.33
50587;PMS7003;70782;50.514;30.816;2023-06-22T00:14:45;30.10;28.50;20.40
50587;PMS7003;70782;50.514;30.816;2023-06-22T00:15:47;32.56;29.56;20.56
50587;PMS7003;70782;50.514;30.816;2023-06-22T00:16:49;35.40;29.70;21.40
50587;PMS7003;70782;50.514;30.816;2023-06-22T00:17:51;37.80;31.90;22.30
50587;PMS7003;70782;50.514;30.816;2023-06-22T00:18:53;37.80;32.30;21.60
50587;PMS7003;70782;50.514;30.816;2023-06-22T00:19:56;34.60;32.10;21.90
50587;PMS7003;70782;50.514;30.816;2023-06-22T00:20:59;38.10;32.50;22.20
50587;PMS7003;70782;50.514;30.816;2023-06-22T00:22:01;41.90;33.90;23.10
50587;PMS7003;70782;50.514;30.816;2023-06-22T00:23:04;39.60;34.00;23.50
50587;PMS7003;70782;50.514;30.816;2023-06-22T00:24:07;39.40;34.30;22.90
50587;PMS7003;70782;50.514;30.816;2023-06-22T00:25:09;38.90;32.70;22.50
50587;PMS7003;70782;50.514;30.816;2023-06-22T00:26:13;38.50;32.60;22.70
50587;PMS7003;70782;50.514;30.816;2023-06-22T00:27:15;38.50;33.80;23.40
50587;PMS7003;70782;50.514;30.816;2023-06-22T00:28:17;39.44;33.44;22.89
50587;PMS7003;70782;50.514;30.816;2023-06-22T00:29:19;34.44;30.89;21.78
50587;PMS7003;70782;50.514;30.816;2023-06-22T00:30:21;38.00;32.00;22.10
50587;PMS7003;70782;50.514;30.816;2023-06-22T00:31:23;35.78;32.56;21.56
50587;PMS7003;70782;50.514;30.816;2023-06-22T00:32:27;40.30;33.70;22.40
50587;PMS7003;70782;50.514;30.816;2023-06-22T00:33:30;39.10;33.40;22.30
50587;PMS7003;70782;50.514;30.816;2023-06-22T00:34:31;40.78;32.89;22.56
50587;PMS7003;70782;50.514;30.816;2023-06-22T00:35:34;38.00;33.80;22.60
50587;PMS7003;70782;50.514;30.816;2023-06-22T00:36:36;36.10;32.70;22.50
50587;PMS7003;70782;50.514;30.816;2023-06-22T00:37:39;38.20;33.00;22.80
50587;PMS7003;70782;50.514;30.816;2023-06-22T00:38:41;38.50;32.10;21.80
50587;PMS7003;70782;50.514;30.816;2023-06-22T00:39:44;41.40;33.30;21.70
50587;PMS7003;70782;50.514;30.816;2023-06-22T00:40:46;33.44;30.78;21.11
50587;PMS7003;70782;50.514;30.816;2023-06-22T00:41:49;31.64;29.45;19.82
50587;PMS7003;70782;50.514;30.816;2023-06-22T00:42:51;35.20;31.20;21.40
50587;PMS7003;70782;50.514;30.816;2023-06-22T00:43:53;33.10;31.00;21.10
50587;PMS7003;70782;50.514;30.816;2023-06-22T00:44:56;34.90;31.40;21.30
50587;PMS7003;70782;50.514;30.816;2023-06-22T00:45:58;35.90;33.00;21.90
50587;PMS7003;70782;50.514;30.816;2023-06-22T00:47:01;36.60;32.40;22.40
50587;PMS7003;70782;50.514;30.816;2023-06-22T00:48:04;40.82;34.45;22.18
50587;PMS7003;70782;50.514;30.816;2023-06-22T00:49:07;34.20;31.60;21.60
50587;PMS7003;70782;50.514;30.816;2023-06-22T00:50:10;35.10;31.00;21.90
50587;PMS7003;70782;50.514;30.816;2023-06-22T00:51:15;28.10;25.70;15.50
50587;PMS7003;70782;50.514;30.816;2023-06-22T00:52:21;36.30;30.80;21.50
50587;PMS7003;70782;50.514;30.816;2023-06-22T00:53:24;37.00;32.20;21.40
50587;PMS7003;70782;50.514;30.816;2023-06-22T00:54:26;37.10;31.50;21.70
50587;PMS7003;70782;50.514;30.816;2023-06-22T00:55:29;34.50;30.80;20.10
50587;PMS7003;70782;50.514;30.816;2023-06-22T00:56:31;29.90;29.20;21.20
50587;PMS7003;70782;50.514;30.816;2023-06-22T00:57:35;33.50;28.50;20.20
50587;PMS7003;70782;50.514;30.816;2023-06-22T00:58:38;32.20;29.20;20.10
50587;PMS7003;70782;50.514;30.816;2023-06-22T00:59:40;29.30;28.60;19.90
50587;PMS7003;70782;50.514;30.816;2023-06-22T01:00:45;31.00;28.50;19.80
50587;PMS7003;70782;50.514;30.816;2023-06-22T01:01:47;31.30;29.00;20.10
50587;PMS7003;70782;50.514;30.816;2023-06-22T01:02:49;30.60;27.80;19.50
50587;PMS7003;70782;50.514;30.816;2023-06-22T01:03:59;34.20;30.30;20.40
50587;PMS7003;70782;50.514;30.816;2023-06-22T01:05:02;30.00;28.40;19.90
50587;PMS7003;70782;50.514;30.816;2023-06-22T01:06:08;32.80;29.20;20.00
50587;PMS7003;70782;50.514;30.816;2023-06-22T01:09:59;25.10;23.20;16.80
50587;PMS7003;70782;50.514;30.816;2023-06-22T01:11:13;33.30;30.20;20.90
50587;PMS7003;70782;50.514;30.816;2023-06-22T01:12:17;30.80;29.40;19.60
50587;PMS7003;70782;50.514;30.816;2023-06-22T01:13:35;33.80;29.30;19.40
50587;PMS7003;70782;50.514;30.816;2023-06-22T01:14:47;25.20;23.30;16.70
50587;PMS7003;70782;50.514;30.816;2023-06-22T01:16:03;31.10;29.80;19.70
50587;PMS7003;70782;50.514;30.816;2023-06-22T01:17:08;32.00;28.30;19.70
50587;PMS7003;70782;50.514;30.816;2023-06-22T01:18:10;26.90;25.20;18.20
50587;PMS7003;70782;50.514;30.816;2023-06-22T01:19:32;28.40;27.20;19.10
50587;PMS7003;70782;50.514;30.816;2023-06-22T01:20:43;34.00;30.80;20.50
50587;PMS7003;70782;50.514;30.816;2023-06-22T01:21:45;36.00;31.36;21.09
50587;PMS7003;70782;50.514;30.816;2023-06-22T01:25:43;28.30;25.90;19.10
50587;PMS7003;70782;50.514;30.816;2023-06-22T01:29:55;32.40;27.70;19.20
50587;PMS7003;70782;50.514;30.816;2023-06-22T01:30:57;29.80;27.10;19.30
50587;PMS7003;70782;50.514;30.816;2023-06-22T01:32:00;27.60;25.90;19.60
50587;PMS7003;70782;50.514;30.816;2023-06-22T01:33:04;30.30;27.80;20.00
50587;PMS7003;70782;50.514;30.816;2023-06-22T01:34:08;29.30;27.80;18.60
50587;PMS7003;70782;50.514;30.816;2023-06-22T01:35:10;35.50;30.20;21.30
50587;PMS7003;70782;50.514;30.816;2023-06-22T01:36:14;34.20;29.60;20.40
50587;PMS7003;70782;50.514;30.816;2023-06-22T01:37:20;31.30;28.10;19.00
50587;PMS7003;70782;50.514;30.816;2023-06-22T01:38:24;28.00;26.20;18.20
50587;PMS7003;70782;50.514;30.816;2023-06-22T01:39:27;32.82;29.00;19.55
50587;PMS7003;70782;50.514;30.816;2023-06-22T01:40:31;29.00;27.09;18.64
50587;PMS7003;70782;50.514;30.816;2023-06-22T01:41:37;28.00;25.10;19.40
50587;PMS7003;70782;50.514;30.816;2023-06-22T01:42:40;31.30;28.70;19.70
50587;PMS7003;70782;50.514;30.816;2023-06-22T01:43:43;25.90;23.50;17.30
50587;PMS7003;70782;50.514;30.816;2023-06-22T01:44:46;29.40;26.10;18.20
50587;PMS7003;70782;50.514;30.816;2023-06-22T01:45:49;28.90;28.10;19.30
50587;PMS7003;70782;50.514;30.816;2023-06-22T01:46:52;30.20;27.60;19.70
50587;PMS7003;70782;50.514;30.816;2023-06-22T01:47:56;33.40;31.40;20.30
50587;PMS7003;70782;50.514;30.816;2023-06-22T01:48:58;30.50;29.50;19.00
50587;PMS7003;70782;50.514;30.816;2023-06-22T01:50:00;29.20;27.00;19.80
50587;PMS7003;70782;50.514;30.816;2023-06-22T01:51:03;28.40;25.80;18.20
50587;PMS7003;70782;50.514;30.816;2023-06-22T01:52:05;29.60;27.70;19.20
50587;PMS7003;70782;50.514;30.816;2023-06-22T01:53:08;28.40;26.60;18.40
50587;PMS7003;70782;50.514;30.816;2023-06-22T01:54:10;26.50;25.80;18.50
50587;PMS7003;70782;50.514;30.816;2023-06-22T01:55:14;11.20;10.60;3.70
50587;PMS7003;70782;50.514;30.816;2023-06-22T01:56:17;26.73;24.27;17.64
50587;PMS7003;70782;50.514;30.816;2023-06-22T01:57:19;27.60;25.90;18.60
50587;PMS7003;70782;50.514;30.816;2023-06-22T01:58:23;27.80;26.50;18.20
50587;PMS7003;70782;50.514;30.816;2023-06-22T01:59:32;26.00;24.70;17.90
50587;PMS7003;70782;50.514;30.816;2023-06-22T02:00:37;24.40;23.80;17.70
50587;PMS7003;70782;50.514;30.816;2023-06-22T02:01:43;26.30;24.90;18.40
50587;PMS7003;70782;50.514;30.816;2023-06-22T02:02:57;27.60;25.50;18.40
50587;PMS7003;70782;50.514;30.816;2023-06-22T02:04:06;27.70;25.90;18.30
50587;PMS7003;70782;50.514;30.816;2023-06-22T02:05:15;26.70;24.30;17.60
50587;PMS7003;70782;50.514;30.816;2023-06-22T02:06:23;27.40;25.00;18.30
50587;PMS7003;70782;50.514;30.816;2023-06-22T02:07:29;28.30;27.20;19.60
50587;PMS7003;70782;50.514;30.816;2023-06-22T02:08:40;25.90;24.90;18.00
50587;PMS7003;70782;50.514;30.816;2023-06-22T02:09:44;26.50;25.00;18.30
50587;PMS7003;70782;50.514;30.816;2023-06-22T02:10:48;26.20;25.50;17.60
50587;PMS7003;70782;50.514;30.816;2023-06-22T02:11:51;26.40;25.50;18.50
50587;PMS7003;70782;50.514;30.816;2023-06-22T02:12:54;25.30;25.20;18.80
50587;PMS7003;70782;50.514;30.816;2023-06-22T02:13:57;24.10;22.80;18.50
50587;PMS7003;70782;50.514;30.816;2023-06-22T02:14:59;28.90;25.20;18.50
50587;PMS7003;70782;50.514;30.816;2023-06-22T02:16:02;28.90;26.30;18.70
50587;PMS7003;70782;50.514;30.816;2023-06-22T02:17:05;27.70;26.90;19.50
50587;PMS7003;70782;50.514;30.816;2023-06-22T02:18:10;32.60;28.80;19.20
50587;PMS7003;70782;50.514;30.816;2023-06-22T02:19:13;24.20;23.90;17.00
50587;PMS7003;70782;50.514;30.816;2023-06-22T02:20:15;28.91;27.82;19.45
50587;PMS7003;70782;50.514;30.816;2023-06-22T02:21:19;25.40;25.40;18.50
50587;PMS7003;70782;50.514;30.816;2023-06-22T02:22:22;27.40;25.80;18.80
50587;PMS7003;70782;50.514;30.816;2023-06-22T02:23:24;26.30;25.40;18.10
50587;PMS7003;70782;50.514;30.816;2023-06-22T02:24:26;29.33;27.67;18.44
50587;PMS7003;70782;50.514;30.816;2023-06-22T02:25:29;26.09;25.55;18.64
50587;PMS7003;70782;50.514;30.816;2023-06-22T02:26:31;27.80;25.10;18.90
50587;PMS7003;70782;50.514;30.816;2023-06-22T02:27:36;28.00;26.10;17.80
50587;PMS7003;70782;50.514;30.816;2023-06-22T02:28:38;28.00;26.40;18.50
50587;PMS7003;70782;50.514;30.816;2023-06-22T02:29:40;28.30;26.10;18.00
50587;PMS7003;70782;50.514;30.816;2023-06-22T02:30:44;29.50;26.90;18.70
50587;PMS7003;70782;50.514;30.816;2023-06-22T02:31:46;27.80;26.90;19.00
50587;PMS7003;70782;50.514;30.816;2023-06-22T02:32:49;28.20;26.50;19.20
50587;PMS7003;70782;50.514;30.816;2023-06-22T02:33:51;28.22;26.67;18.89
50587;PMS7003;70782;50.514;30.816;2023-06-22T02:34:54;24.36;22.91;15.27
50587;PMS7003;70782;50.514;30.816;2023-06-22T02:35:58;30.10;27.00;19.20
50587;PMS7003;70782;50.514;30.816;2023-06-22T02:37:00;29.90;27.70;19.20
50587;PMS7003;70782;50.514;30.816;2023-06-22T02:38:03;30.67;27.22;19.22
50587;PMS7003;70782;50.514;30.816;2023-06-22T02:39:05;32.30;28.00;19.60
50587;PMS7003;70782;50.514;30.816;2023-06-22T02:40:08;26.90;26.20;17.60
50587;PMS7003;70782;50.514;30.816;2023-06-22T02:41:10;31.50;29.10;20.50
50587;PMS7003;70782;50.514;30.816;2023-06-22T02:42:12;27.50;26.70;19.30
50587;PMS7003;70782;50.514;30.816;2023-06-22T02:43:16;27.60;25.40;18.90
50587;PMS7003;70782;50.514;30.816;2023-06-22T02:44:19;32.20;28.50;19.70
50587;PMS7003;70782;50.514;30.816;2023-06-22T02:45:23;30.10;27.80;19.70
50587;PMS7003;70782;50.514;30.816;2023-06-22T02:46:25;27.90;26.80;19.40
50587;PMS7003;70782;50.514;30.816;2023-06-22T02:47:27;25.80;25.20;16.70
50587;PMS7003;70782;50.514;30.816;2023-06-22T02:48:30;30.10;27.30;19.40
50587;PMS7003;70782;50.514;30.816;2023-06-22T02:49:32;28.56;26.00;18.67
50587;PMS7003;70782;50.514;30.816;2023-06-22T02:50:35;26.64;26.18;18.64
50587;PMS7003;70782;50.514;30.816;2023-06-22T02:51:42;28.60;27.40;19.30
50587;PMS7003;70782;50.514;30.816;2023-06-22T02:52:46;26.70;23.70;16.40
50587;PMS7003;70782;50.514;30.816;2023-06-22T02:53:49;24.50;22.10;16.60
50587;PMS7003;70782;50.514;30.816;2023-06-22T02:54:51;25.70;25.40;18.00
50587;PMS7003;70782;50.514;30.816;2023-06-22T02:55:55;21.90;20.60;15.90
50587;PMS7003;70782;50.514;30.816;2023-06-22T02:56:57;25.40;24.70;17.50
50587;PMS7003;70782;50.514;30.816;2023-06-22T02:58:00;25.40;24.60;17.50
50587;PMS7003;70782;50.514;30.816;2023-06-22T02:59:03;29.10;27.20;18.80
50587;PMS7003;70782;50.514;30.816;2023-06-22T03:00:09;30.60;27.50;19.70
50587;PMS7003;70782;50.514;30.816;2023-06-22T03:01:11;26.20;26.00;19.20
50587;PMS7003;70782;50.514;30.816;2023-06-22T03:02:14;28.09;27.55;19.36
50587;PMS7003;70782;50.514;30.816;2023-06-22T03:03:17;28.00;26.50;19.60
50587;PMS7003;70782;50.514;30.816;2023-06-22T03:04:19;27.90;24.90;18.10
50587;PMS7003;70782;50.514;30.816;2023-06-22T03:05:21;25.40;24.80;18.60
50587;PMS7003;70782;50.514;30.816;2023-06-22T03:06:24;27.00;25.50;18.70
50587;PMS7003;70782;50.514;30.816;2023-06-22T03:07:26;27.70;25.40;17.90
50587;PMS7003;70782;50.514;30.816;2023-06-22T03:08:30;24.50;23.50;17.30
50587;PMS7003;70782;50.514;30.816;2023-06-22T03:09:32;22.70;20.70;16.30
50587;PMS7003;70782;50.514;30.816;2023-06-22T03:10:35;24.40;23.10;18.00
50587;PMS7003;70782;50.514;30.816;2023-06-22T03:11:37;24.80;23.10;16.40
50587;PMS7003;70782;50.514;30.816;2023-06-22T03:12:40;23.30;23.30;17.30
50587;PMS7003;70782;50.514;30.816;2023-06-22T03:13:43;26.91;22.45;17.73
50587;PMS7003;70782;50.514;30.816;2023-06-22T03:14:45;27.60;24.70;18.50
50587;PMS7003;70782;50.514;30.816;2023-06-22T03:15:49;25.50;24.20;17.80
50587;PMS7003;70782;50.514;30.816;2023-06-22T03:16:52;26.40;25.00;18.50
50587;PMS7003;70782;50.514;30.816;2023-06-22T03:17:54;28.10;25.40;18.50
50587;PMS7003;70782;50.514;30.816;2023-06-22T03:18:58;28.60;26.00;17.00
50587;PMS7003;70782;50.514;30.816;2023-06-22T03:20:00;22.90;21.30;14.00
50587;PMS7003;70782;50.514;30.816;2023-06-22T03:21:03;21.55;20.00;14.09
50587;PMS7003;70782;50.514;30.816;2023-06-22T03:22:06;25.91;23.82;16.82
50587;PMS7003;70782;50.514;30.816;2023-06-22T03:23:08;23.78;22.33;15.44
50587;PMS7003;70782;50.514;30.816;2023-06-22T03:24:10;23.00;20.40;14.80
50587;PMS7003;70782;50.514;30.816;2023-06-22T03:25:12;22.60;22.00;13.80
50587;PMS7003;70782;50.514;30.816;2023-06-22T03:26:17;23.30;22.10;16.50
50587;PMS7003;70782;50.514;30.816;2023-06-22T03:27:20;24.80;23.60;16.40
50587;PMS7003;70782;50.514;30.816;2023-06-22T03:28:22;29.10;26.30;18.00
50587;PMS7003;70782;50.514;30.816;2023-06-22T03:29:24;27.78;26.78;17.89
50587;PMS7003;70782;50.514;30.816;2023-06-22T03:30:26;27.80;26.30;17.30
50587;PMS7003;70782;50.514;30.816;2023-06-22T03:31:29;26.73;25.36;18.82
50587;PMS7003;70782;50.514;30.816;2023-06-22T03:32:32;28.70;27.70;19.50
50587;PMS7003;70782;50.514;30.816;2023-06-22T03:33:34;28.70;25.20;18.70
50587;PMS7003;70782;50.514;30.816;2023-06-22T03:34:36;23.90;22.80;15.90
50587;PMS7003;70782;50.514;30.816;2023-06-22T03:35:39;27.00;25.30;18.90
50587;PMS7003;70782;50.514;30.816;2023-06-22T03:36:41;27.30;25.00;18.50
50587;PMS7003;70782;50.514;30.816;2023-06-22T03:37:43;26.60;26.40;18.00
50587;PMS7003;70782;50.514;30.816;2023-06-22T03:38:46;26.90;26.20;18.50
50587;PMS7003;70782;50.514;30.816;2023-06-22T03:39:49;28.20;26.50;18.50
50587;PMS7003;70782;50.514;30.816;2023-06-22T03:40:52;27.70;25.50;18.20
50587;PMS7003;70782;50.514;30.816;2023-06-22T03:41:55;25.80;25.50;19.50
50587;PMS7003;70782;50.514;30.816;2023-06-22T03:42:58;31.70;27.60;18.70
50587;PMS7003;70782;50.514;30.816;2023-06-22T03:44:00;30.20;29.80;21.00
50587;PMS7003;70782;50.514;30.816;2023-06-22T03:45:03;32.30;29.30;19.50
50587;PMS7003;70782;50.514;30.816;2023-06-22T03:46:06;30.90;28.70;20.10
50587;PMS7003;70782;50.514;30.816;2023-06-22T03:47:08;33.20;30.30;20.80
50587;PMS7003;70782;50.514;30.816;2023-06-22T03:48:11;34.30;30.80;22.00
50587;PMS7003;70782;50.514;30.816;2023-06-22T03:49:14;29.27;28.09;20.73
50587;PMS7003;70782;50.514;30.816;2023-06-22T03:50:16;32.80;30.00;21.40
50587;PMS7003;70782;50.514;30.816;2023-06-22T03:51:18;27.90;26.80;19.60
50587;PMS7003;70782;50.514;30.816;2023-06-22T03:52:21;29.44;27.33;19.00
50587;PMS7003;70782;50.514;30.816;2023-06-22T03:53:23;29.64;26.82;19.36
50587;PMS7003;70782;50.514;30.816;2023-06-22T03:54:25;13.70;11.90;4.60
50587;PMS7003;70782;50.514;30.816;2023-06-22T03:55:27;31.56;30.33;21.11
50587;PMS7003;70782;50.514;30.816;2023-06-22T03:56:29;36.22;32.78;23.44
50587;PMS7003;70782;50.514;30.816;2023-06-22T03:57:31;32.44;31.22;21.89
50587;PMS7003;70782;50.514;30.816;2023-06-22T03:58:33;33.00;30.10;21.10
50587;PMS7003;70782;50.514;30.816;2023-06-22T03:59:35;30.60;28.30;20.10
50587;PMS7003;70782;50.514;30.816;2023-06-22T04:00:37;29.50;27.60;20.30
50587;PMS7003;70782;50.514;30.816;2023-06-22T04:01:40;25.90;25.20;18.90
50587;PMS7003;70782;50.514;30.816;2023-06-22T04:02:42;31.89;28.89;20.11
50587;PMS7003;70782;50.514;30.816;2023-06-22T04:03:44;29.70;27.70;19.60
50587;PMS7003;70782;50.514;30.816;2023-06-22T04:04:46;28.80;25.50;17.80
50587;PMS7003;70782;50.514;30.816;2023-06-22T04:05:48;29.30;26.40;19.60
50587;PMS7003;70782;50.514;30.816;2023-06-22T04:06:51;28.00;25.70;17.70
50587;PMS7003;70782;50.514;30.816;2023-06-22T04:07:52;28.89;27.00;19.11
50587;PMS7003;70782;50.514;30.816;2023-06-22T04:08:54;27.89;27.33;18.56
50587;PMS7003;70782;50.514;30.816;2023-06-22T04:09:56;27.00;26.78;18.89
50587;PMS7003;70782;50.514;30.816;2023-06-22T04:10:59;33.00;30.60;21.50
50587;PMS7003;70782;50.514;30.816;2023-06-22T04:12:01;39.80;31.80;22.00
50587;PMS7003;70782;50.514;30.816;2023-06-22T04:13:03;37.80;32.30;22.60
50587;PMS7003;70782;50.514;30.816;2023-06-22T04:14:05;34.89;31.00;21.89
50587;PMS7003;70782;50.514;30.816;2023-06-22T04:15:07;34.78;30.78;20.89
50587;PMS7003;70782;50.514;30.816;2023-06-22T04:16:10;33.20;29.60;21.20
50587;PMS7003;70782;50.514;30.816;2023-06-22T04:17:12;31.20;29.90;20.30
50587;PMS7003;70782;50.514;30.816;2023-06-22T04:18:14;29.33;27.78;19.67
50587;PMS7003;70782;50.514;30.816;2023-06-22T04:19:16;26.67;25.89;17.56
50587;PMS7003;70782;50.514;30.816;2023-06-22T04:20:19;32.00;29.30;20.20
50587;PMS7003;70782;50.514;30.816;2023-06-22T04:21:21;27.70;27.20;18.60
50587;PMS7003;70782;50.514;30.816;2023-06-22T04:22:24;24.40;24.00;16.60
50587;PMS7003;70782;50.514;30.816;2023-06-22T04:23:26;23.00;21.40;15.00
50587;PMS7003;70782;50.514;30.816;2023-06-22T04:24:28;23.30;22.20;16.40
50587;PMS7003;70782;50.514;30.816;2023-06-22T04:25:30;19.60;19.40;14.40
50587;PMS7003;70782;50.514;30.816;2023-06-22T04:26:32;21.80;21.80;16.70
50587;PMS7003;70782;50.514;30.816;2023-06-22T04:27:34;23.67;21.89;15.89
50587;PMS7003;70782;50.514;30.816;2023-06-22T04:28:36;23.40;22.50;15.50
50587;PMS7003;70782;50.514;30.816;2023-06-22T04:29:38;22.67;21.78;16.00
50587;PMS7003;70782;50.514;30.816;2023-06-22T04:30:40;22.80;21.10;16.10
50587;PMS7003;70782;50.514;30.816;2023-06-22T04:31:42;23.78;21.33;16.22
50587;PMS7003;70782;50.514;30.816;2023-06-22T04:32:44;22.80;21.60;16.00
50587;PMS7003;70782;50.514;30.816;2023-06-22T04:33:46;18.80;18.30;13.80
50587;PMS7003;70782;50.514;30.816;2023-06-22T04:34:49;21.80;20.60;15.20
50587;PMS7003;70782;50.514;30.816;2023-06-22T04:35:50;26.33;22.33;15.33
50587;PMS7003;70782;50.514;30.816;2023-06-22T04:36:53;23.10;21.90;15.60
50587;PMS7003;70782;50.514;30.816;2023-06-22T04:37:57;22.00;21.10;15.90
50587;PMS7003;70782;50.514;30.816;2023-06-22T04:38:59;22.90;22.90;16.00
50587;PMS7003;70782;50.514;30.816;2023-06-22T04:40:02;26.20;23.90;17.10
50587;PMS7003;70782;50.514;30.816;2023-06-22T04:41:04;22.60;22.00;15.90
50587;PMS7003;70782;50.514;30.816;2023-06-22T04:42:06;23.44;22.67;16.56
50587;PMS7003;70782;50.514;30.816;2023-06-22T04:43:08;25.70;23.90;16.40
50587;PMS7003;70782;50.514;30.816;2023-06-22T04:45:25;23.60;23.60;18.20
50587;PMS7003;70782;50.514;30.816;2023-06-22T04:46:27;24.60;24.10;16.20
50587;PMS7003;70782;50.514;30.816;2023-06-22T04:47:29;22.30;20.90;16.00
50587;PMS7003;70782;50.514;30.816;2023-06-22T04:48:33;24.90;23.80;16.80
50587;PMS7003;70782;50.514;30.816;2023-06-22T04:49:36;25.00;23.10;17.50
50587;PMS7003;70782;50.514;30.816;2023-06-22T04:50:38;28.00;27.20;19.80
50587;PMS7003;70782;50.514;30.816;2023-06-22T04:51:41;45.44;38.33;26.22
50587;PMS7003;70782;50.514;30.816;2023-06-22T04:52:44;36.10;33.00;23.20
50587;PMS7003;70782;50.514;30.816;2023-06-22T04:53:46;31.90;29.80;21.80
50587;PMS7003;70782;50.514;30.816;2023-06-22T04:54:49;28.20;26.60;20.20
50587;PMS7003;70782;50.514;30.816;2023-06-22T04:55:51;32.18;29.18;20.18
50587;PMS7003;70782;50.514;30.816;2023-06-22T04:56:53;28.80;26.00;19.20
50587;PMS7003;70782;50.514;30.816;2023-06-22T04:57:56;24.00;23.50;16.00
50587;PMS7003;70782;50.514;30.816;2023-06-22T04:58:58;27.30;25.60;18.10
50587;PMS7003;70782;50.514;30.816;2023-06-22T05:00:00;29.60;26.50;18.90
50587;PMS7003;70782;50.514;30.816;2023-06-22T05:01:03;28.00;26.40;18.00
50587;PMS7003;70782;50.514;30.816;2023-06-22T05:02:05;24.40;23.70;17.80
50587;PMS7003;70782;50.514;30.816;2023-06-22T05:03:07;25.90;24.30;18.20
50587;PMS7003;70782;50.514;30.816;2023-06-22T05:04:11;26.80;24.30;17.00
50587;PMS7003;70782;50.514;30.816;2023-06-22T05:05:14;28.55;26.09;18.27
50587;PMS7003;70782;50.514;30.816;2023-06-22T05:06:17;27.80;26.40;18.20
50587;PMS7003;70782;50.514;30.816;2023-06-22T05:07:20;25.90;25.90;18.30
50587;PMS7003;70782;50.514;30.816;2023-06-22T05:08:22;22.60;22.00;15.50
50587;PMS7003;70782;50.514;30.816;2023-06-22T05:09:24;26.10;24.80;17.60
50587;PMS7003;70782;50.514;30.816;2023-06-22T05:10:26;26.40;25.80;18.00
50587;PMS7003;70782;50.514;30.816;2023-06-22T05:11:29;27.30;25.50;18.70
50587;PMS7003;70782;50.514;30.816;2023-06-22T05:12:31;26.40;24.60;18.00
50587;PMS7003;70782;50.514;30.816;2023-06-22T05:13:33;25.30;24.90;17.70
50587;PMS7003;70782;50.514;30.816;2023-06-22T05:14:35;26.90;26.10;18.90
50587;PMS7003;70782;50.514;30.816;2023-06-22T05:15:37;23.56;23.33;17.67
50587;PMS7003;70782;50.514;30.816;2023-06-22T05:16:41;24.10;23.50;17.70
50587;PMS7003;70782;50.514;30.816;2023-06-22T05:17:43;25.70;23.10;17.00
50587;PMS7003;70782;50.514;30.816;2023-06-22T05:18:46;27.60;25.20;18.40
50587;PMS7003;70782;50.514;30.816;2023-06-22T05:19:48;26.50;26.10;19.00
50587;PMS7003;70782;50.514;30.816;2023-06-22T05:20:50;26.00;24.50;17.80
50587;PMS7003;70782;50.514;30.816;2023-06-22T05:21:52;26.80;23.70;16.50
50587;PMS7003;70782;50.514;30.816;2023-06-22T05:22:54;26.00;24.00;17.67
50587;PMS7003;70782;50.514;30.816;2023-06-22T05:23:57;27.20;25.30;17.90
50587;PMS7003;70782;50.514;30.816;2023-06-22T05:25:00;24.30;22.40;17.30
50587;PMS7003;70782;50.514;30.816;2023-06-22T05:26:02;27.10;26.10;18.70
50587;PMS7003;70782;50.514;30.816;2023-06-22T05:27:05;27.50;25.90;19.20
50587;PMS7003;70782;50.514;30.816;2023-06-22T05:28:07;26.18;25.73;18.09
50587;PMS7003;70782;50.514;30.816;2023-06-22T05:29:09;25.60;23.50;17.10
50587;PMS7003;70782;50.514;30.816;2023-06-22T05:30:12;27.60;25.00;18.60
50587;PMS7003;70782;50.514;30.816;2023-06-22T05:31:15;26.40;24.70;18.80
50587;PMS7003;70782;50.514;30.816;2023-06-22T05:32:17;28.82;25.91;18.64
50587;PMS7003;70782;50.514;30.816;2023-06-22T05:33:20;30.00;28.80;19.70
50587;PMS7003;70782;50.514;30.816;2023-06-22T05:34:22;26.30;25.60;19.20
50587;PMS7003;70782;50.514;30.816;2023-06-22T05:35:24;28.30;27.00;19.30
50587;PMS7003;70782;50.514;30.816;2023-06-22T05:36:26;30.10;27.80;19.80
50587;PMS7003;70782;50.514;30.816;2023-06-22T05:37:29;29.20;27.40;18.90
50587;PMS7003;70782;50.514;30.816;2023-06-22T05:38:31;26.40;25.10;19.20
50587;PMS7003;70782;50.514;30.816;2023-06-22T05:39:33;29.70;29.20;19.80
50587;PMS7003;70782;50.514;30.816;2023-06-22T05:40:36;26.40;25.70;18.60
50587;PMS7003;70782;50.514;30.816;2023-06-22T05:41:38;25.10;24.60;18.10
50587;PMS7003;70782;50.514;30.816;2023-06-22T05:42:40;26.60;25.30;18.40
50587;PMS7003;70782;50.514;30.816;2023-06-22T05:43:42;27.50;25.50;18.30
50587;PMS7003;70782;50.514;30.816;2023-06-22T05:44:44;26.33;24.11;18.44
50587;PMS7003;70782;50.514;30.816;2023-06-22T05:45:46;30.11;28.11;20.11
50587;PMS7003;70782;50.514;30.816;2023-06-22T05:46:48;29.90;27.50;19.90
50587;PMS7003;70782;50.514;30.816;2023-06-22T05:47:51;28.90;26.30;18.80
50587;PMS7003;70782;50.514;30.816;2023-06-22T05:48:53;26.40;26.00;19.70
50587;PMS7003;70782;50.514;30.816;2023-06-22T05:49:55;26.50;25.70;18.20
50587;PMS7003;70782;50.514;30.816;2023-06-22T05:50:57;25.00;23.90;18.00
50587;PMS7003;70782;50.514;30.816;2023-06-22T05:52:00;28.30;26.70;18.50
50587;PMS7003;70782;50.514;30.816;2023-06-22T05:53:02;28.20;25.00;18.90
50587;PMS7003;70782;50.514;30.816;2023-06-22T05:54:04;27.50;23.70;17.90
50587;PMS7003;70782;50.514;30.816;2023-06-22T05:55:06;25.00;23.10;17.70
50587;PMS7003;70782;50.514;30.816;2023-06-22T05:56:11;21.00;19.70;15.20
50587;PMS7003;70782;50.514;30.816;2023-06-22T05:57:13;25.00;22.44;17.67
50587;PMS7003;70782;50.514;30.816;2023-06-22T05:58:15;24.00;23.50;18.70